createdAt,value
2023-05-19T00:03:23.849Z,102327.75
2023-05-19T00:07:31.371Z,102320.84
2023-05-19T00:11:37.109Z,102333.38
2023-05-19T00:15:40.972Z,102332.91
2023-05-19T00:19:45.030Z,102331.06
2023-05-19T00:23:48.041Z,102334.78
2023-05-19T00:27:52.632Z,102327.88
2023-05-19T00:31:55.754Z,102327.25
2023-05-19T00:35:58.635Z,102323.19
2023-05-19T00:40:01.733Z,102319.22
2023-05-19T00:44:08.031Z,102323.34
2023-05-19T00:48:10.942Z,102322.06
2023-05-19T00:52:14.306Z,102319.97
2023-05-19T00:56:17.794Z,102322.00
2023-05-19T01:00:22.626Z,102302.56
2023-05-19T01:04:25.548Z,102304.19
2023-05-19T01:08:29.191Z,102298.13
2023-05-19T01:12:32.026Z,102302.25
2023-05-19T01:16:41.184Z,102301.16
2023-05-19T01:20:48.372Z,102307.19
2023-05-19T01:25:20.955Z,102312.56
2023-05-19T01:29:38.143Z,102307.31
2023-05-19T01:33:44.637Z,102305.19
2023-05-19T01:37:48.528Z,102303.53
2023-05-19T01:41:52.282Z,102309.13
2023-05-19T01:45:58.573Z,102302.84
2023-05-19T01:50:02.896Z,102302.22
2023-05-19T01:54:05.881Z,102297.56
2023-05-19T01:58:16.567Z,102295.25
2023-05-19T02:02:30.492Z,102305.00
2023-05-19T02:06:42.732Z,102312.69
2023-05-19T02:10:56.441Z,102319.53
2023-05-19T02:15:04.549Z,102319.47
2023-05-19T02:19:21.799Z,102325.06
2023-05-19T02:23:27.648Z,102320.88
2023-05-19T02:27:33.465Z,102321.06
2023-05-19T02:31:36.265Z,102317.25
2023-05-19T02:35:39.127Z,102310.97
2023-05-19T02:39:43.779Z,102304.25
2023-05-19T02:43:46.520Z,102299.03
2023-05-19T02:47:49.986Z,102294.16
2023-05-19T02:51:52.832Z,102292.88
2023-05-19T02:55:57.022Z,102288.84
2023-05-19T02:59:59.782Z,102293.84
2023-05-19T03:04:02.773Z,102296.06
2023-05-19T03:08:06.230Z,102291.22
2023-05-19T03:12:10.776Z,102297.22
2023-05-19T03:16:14.071Z,102298.44
2023-05-19T03:20:17.429Z,102290.69
2023-05-19T03:24:20.922Z,102292.75
2023-05-19T03:28:27.246Z,102290.41
2023-05-19T03:32:30.140Z,102295.38
2023-05-19T03:36:33.093Z,102303.69
2023-05-19T03:40:37.594Z,102294.72
2023-05-19T03:44:47.230Z,102290.72
2023-05-19T03:48:51.223Z,102294.47
2023-05-19T03:52:53.920Z,102294.63
2023-05-19T03:57:03.953Z,102291.91
2023-05-19T04:01:08.480Z,102293.78
2023-05-19T04:05:12.029Z,102298.56
2023-05-19T04:09:16.924Z,102297.91
2023-05-19T04:13:19.732Z,102302.94
2023-05-19T04:17:26.337Z,102309.59
2023-05-19T04:21:31.285Z,102310.06
2023-05-19T04:25:35.956Z,102316.78
2023-05-19T04:29:38.936Z,102319.31
2023-05-19T04:33:43.445Z,102315.56
2023-05-19T04:37:46.896Z,102312.84
2023-05-19T04:41:51.483Z,102317.25
2023-05-19T04:45:54.748Z,102311.25
2023-05-19T04:50:00.786Z,102310.50
2023-05-19T04:54:04.966Z,102318.09
2023-05-19T04:58:09.658Z,102319.00
2023-05-19T05:02:13.393Z,102322.84
2023-05-19T05:06:18.255Z,102312.06
2023-05-19T05:10:21.868Z,102312.91
2023-05-19T05:14:25.485Z,102315.50
2023-05-19T05:18:29.118Z,102305.38
2023-05-19T05:22:38.666Z,102302.72
2023-05-19T05:26:43.210Z,102308.69
2023-05-19T05:30:46.561Z,102305.84
2023-05-19T05:34:52.170Z,102308.22
2023-05-19T05:38:56.626Z,102305.84
2023-05-19T05:42:59.961Z,102309.91
2023-05-19T05:47:07.981Z,102293.06
2023-05-19T05:51:12.125Z,102305.66
2023-05-19T05:55:18.352Z,102302.41
2023-05-19T05:59:21.423Z,102301.47
2023-05-19T06:03:24.887Z,102297.56
2023-05-19T06:07:29.000Z,102290.81
2023-05-19T06:11:37.887Z,102302.69
2023-05-19T06:15:41.706Z,102298.19
2023-05-19T06:19:54.320Z,102296.78
2023-05-19T06:23:57.996Z,102301.44
2023-05-19T06:28:05.980Z,102312.03
2023-05-19T06:32:09.282Z,102301.94
2023-05-19T06:36:12.531Z,102308.56
2023-05-19T06:40:18.211Z,102299.38
2023-05-19T06:44:24.175Z,102304.28
2023-05-19T06:48:27.070Z,102300.00
2023-05-19T06:52:30.079Z,102303.78
2023-05-19T06:56:33.060Z,102295.75
2023-05-19T07:00:38.295Z,102307.56
2023-05-19T07:04:43.959Z,102303.63
2023-05-19T07:08:51.278Z,102302.28
2023-05-19T07:12:55.786Z,102308.19
2023-05-19T07:17:03.466Z,102303.75
2023-05-19T07:21:07.249Z,102305.50
2023-05-19T07:25:11.724Z,102295.16
2023-05-19T07:29:15.854Z,102279.06
2023-05-19T07:33:23.490Z,102283.44
2023-05-19T07:37:26.655Z,102285.63
2023-05-19T07:41:29.738Z,102283.31
2023-05-19T07:45:32.715Z,102281.00
2023-05-19T07:49:40.568Z,102287.34
2023-05-19T07:53:43.850Z,102290.66
2023-05-19T07:57:48.736Z,102282.69
2023-05-19T08:01:55.191Z,102275.75
2023-05-19T08:06:00.128Z,102274.69
2023-05-19T08:10:20.072Z,102266.97
2023-05-19T08:14:23.248Z,102261.09
2023-05-19T08:18:50.498Z,102271.66
2023-05-19T08:23:14.891Z,102258.44
2023-05-19T08:27:18.269Z,102263.25
2023-05-19T08:31:22.489Z,102253.84
2023-05-19T08:35:25.956Z,102257.16
2023-05-19T08:39:33.157Z,102241.91
2023-05-19T08:43:35.992Z,102240.50
2023-05-19T08:47:39.097Z,102238.50
2023-05-19T08:51:52.046Z,102230.41
2023-05-19T08:56:04.085Z,102214.88
2023-05-19T09:00:11.779Z,102221.97
2023-05-19T09:04:20.874Z,102211.34
2023-05-19T09:08:25.068Z,102199.03
2023-05-19T09:12:31.520Z,102203.81
2023-05-19T09:16:34.596Z,102194.50
2023-05-19T09:20:41.510Z,102196.31
2023-05-19T09:24:44.782Z,102195.88
2023-05-19T09:28:49.825Z,102195.13
2023-05-19T09:32:53.107Z,102184.69
2023-05-19T09:36:58.010Z,102184.44
2023-05-19T09:41:02.340Z,102176.94
2023-05-19T09:45:08.166Z,102190.38
2023-05-19T09:49:13.311Z,102178.50
2023-05-19T09:53:18.608Z,102176.47
2023-05-19T09:57:28.281Z,102185.56
2023-05-19T10:01:41.215Z,102176.31
2023-05-19T10:06:04.931Z,102179.25
2023-05-19T10:10:20.489Z,102175.28
2023-05-19T10:14:24.912Z,102163.84
2023-05-19T10:18:31.758Z,102172.94
2023-05-19T10:22:34.853Z,102163.72
2023-05-19T10:26:38.588Z,102157.25
2023-05-19T10:30:43.985Z,102146.94
2023-05-19T10:35:10.976Z,102142.41
2023-05-19T10:39:18.957Z,102129.47
2023-05-19T10:43:32.032Z,102132.50
2023-05-19T10:47:38.785Z,102143.09
2023-05-19T10:51:56.912Z,102143.28
2023-05-19T10:56:30.140Z,102125.59
2023-05-19T11:01:01.272Z,102134.00
2023-05-19T11:05:11.153Z,102122.28
2023-05-19T11:09:17.086Z,102119.44
2023-05-19T11:13:22.735Z,102117.41
2023-05-19T11:17:27.486Z,102113.91
2023-05-19T11:21:50.458Z,102120.13
2023-05-19T11:25:56.989Z,102121.03
2023-05-19T11:30:01.965Z,102117.91
2023-05-19T11:34:07.624Z,102102.19
2023-05-19T11:38:12.236Z,102108.09
2023-05-19T11:42:16.884Z,102110.41
2023-05-19T11:46:35.109Z,102111.06
2023-05-19T11:51:01.604Z,102098.91
2023-05-19T11:55:22.146Z,102111.03
2023-05-19T11:59:34.931Z,102104.78
2023-05-19T12:03:46.523Z,102099.03
2023-05-19T12:07:52.450Z,102106.03
2023-05-19T12:11:56.499Z,102091.59
2023-05-19T12:16:02.374Z,102083.00
2023-05-19T12:20:06.654Z,102078.44
2023-05-19T12:24:11.022Z,102088.03
2023-05-19T12:28:14.344Z,102083.56
2023-05-19T12:32:20.274Z,102081.31
2023-05-19T12:36:54.445Z,102081.75
2023-05-19T12:41:20.560Z,102079.50
2023-05-19T12:45:45.735Z,102072.97
2023-05-19T12:50:11.168Z,102058.72
2023-05-19T12:54:15.498Z,102056.38
2023-05-19T12:58:21.430Z,102057.94
2023-05-19T13:02:25.742Z,102053.97
2023-05-19T13:06:30.409Z,102046.91
2023-05-19T13:10:35.520Z,102038.53
2023-05-19T13:14:40.601Z,102041.31
2023-05-19T13:18:48.665Z,102048.13
2023-05-19T13:22:55.423Z,102040.47
2023-05-19T13:27:13.498Z,102039.91
2023-05-19T13:31:26.397Z,102038.75
2023-05-19T13:35:45.920Z,102035.09
2023-05-19T13:40:01.491Z,102026.72
2023-05-19T13:44:04.531Z,102019.78
2023-05-19T13:48:08.866Z,102017.69
2023-05-19T13:52:19.586Z,102022.13
2023-05-19T13:56:23.728Z,102028.13
2023-05-19T14:00:27.082Z,102022.97
2023-05-19T14:04:38.247Z,102014.03
2023-05-19T14:08:42.265Z,102017.25
2023-05-19T14:13:14.045Z,102023.78
2023-05-19T14:17:11.355Z,102018.88
2023-05-19T14:21:21.302Z,102008.63
2023-05-19T14:25:50.220Z,102009.25
2023-05-19T14:30:20.638Z,102011.16
2023-05-19T14:34:38.133Z,102013.75
2023-05-19T14:38:50.361Z,102005.47
2023-05-19T14:42:54.667Z,102006.97
2023-05-19T14:46:59.892Z,102012.94
2023-05-19T14:51:05.515Z,102007.50
2023-05-19T14:55:12.820Z,102006.06
2023-05-19T14:59:17.939Z,102007.16
2023-05-19T15:03:23.222Z,101997.09
2023-05-19T15:07:46.205Z,102004.38
2023-05-19T15:12:03.938Z,101999.19
2023-05-19T15:16:25.618Z,101994.59
2023-05-19T15:20:51.414Z,101987.47
2023-05-19T15:25:00.917Z,101974.97
2023-05-19T15:29:03.985Z,101980.56
2023-05-19T15:33:07.094Z,101985.22
2023-05-19T15:37:11.406Z,101989.91
2023-05-19T15:41:14.826Z,101992.06
2023-05-19T15:45:22.721Z,101973.22
2023-05-19T15:49:31.587Z,101989.63
2023-05-19T15:53:37.351Z,101982.19
2023-05-19T15:57:40.904Z,101977.88
2023-05-19T16:01:58.680Z,101980.19
2023-05-19T16:06:13.982Z,101985.97
2023-05-19T16:10:35.175Z,101972.44
2023-05-19T16:14:47.700Z,101966.19
2023-05-19T16:18:50.923Z,101973.53
2023-05-19T16:22:55.430Z,101959.28
2023-05-19T16:26:59.787Z,101969.81
2023-05-19T16:31:02.678Z,101964.50
2023-05-19T16:35:06.407Z,101969.38
2023-05-19T16:39:15.614Z,101964.94
2023-05-19T16:43:20.987Z,101963.03
2023-05-19T16:47:24.161Z,101972.63
2023-05-19T16:51:28.793Z,101967.19
2023-05-19T16:55:35.998Z,101967.28
2023-05-19T16:59:58.741Z,101967.91
2023-05-19T17:04:21.161Z,101958.81
2023-05-19T17:08:33.274Z,101953.53
2023-05-19T17:12:36.916Z,101955.47
2023-05-19T17:16:41.886Z,101954.41
2023-05-19T17:20:45.390Z,101962.25
2023-05-19T17:24:49.184Z,101962.25
2023-05-19T17:28:52.757Z,101957.78
2023-05-19T17:32:59.480Z,101958.13
2023-05-19T17:37:03.301Z,101955.38
2023-05-19T17:41:09.782Z,101956.59
2023-05-19T17:45:13.143Z,101958.25
2023-05-19T17:49:17.517Z,101964.72
2023-05-19T17:53:21.562Z,101970.25
2023-05-19T17:57:32.132Z,101964.72
2023-05-19T18:01:36.821Z,101967.25
2023-05-19T18:05:43.304Z,101966.41
2023-05-19T18:09:47.208Z,101973.34
2023-05-19T18:13:50.088Z,101970.31
2023-05-19T18:17:53.089Z,101972.53
2023-05-19T18:21:57.469Z,101979.16
2023-05-19T18:26:01.497Z,101982.19
2023-05-19T18:30:06.747Z,101986.84
2023-05-19T18:34:10.693Z,101995.13
2023-05-19T18:38:37.445Z,101994.81
2023-05-19T18:42:40.924Z,101991.19
2023-05-19T18:46:44.137Z,102002.47
2023-05-19T18:50:49.768Z,101995.50
2023-05-19T18:54:54.369Z,101993.22
2023-05-19T18:58:58.330Z,101996.72
2023-05-19T19:03:02.949Z,102000.81
2023-05-19T19:07:08.053Z,101996.88
2023-05-19T19:11:13.114Z,102002.59
2023-05-19T19:15:16.468Z,102010.81
2023-05-19T19:19:20.416Z,102014.56
2023-05-19T19:23:24.133Z,102027.69
2023-05-19T19:27:38.214Z,102028.13
2023-05-19T19:31:50.743Z,102028.78
2023-05-19T19:36:01.913Z,102037.22
2023-05-19T19:40:20.169Z,102037.31
2023-05-19T19:44:42.794Z,102041.00
2023-05-19T19:49:00.957Z,102045.53
2023-05-19T19:53:06.518Z,102047.06
2023-05-19T19:57:17.003Z,102045.81
2023-05-19T20:01:23.577Z,102053.38
2023-05-19T20:05:27.359Z,102059.81
2023-05-19T20:09:33.928Z,102053.00
2023-05-19T20:13:38.940Z,102053.66
2023-05-19T20:17:52.373Z,102060.94
2023-05-19T20:22:12.306Z,102057.94
2023-05-19T20:26:20.605Z,102063.25
2023-05-19T20:30:24.209Z,102062.03
2023-05-19T20:34:44.662Z,102063.13
2023-05-19T20:38:58.683Z,102070.34
2023-05-19T20:43:01.971Z,102075.91
2023-05-19T20:47:09.575Z,102077.75
2023-05-19T20:51:16.756Z,102072.56
2023-05-19T20:55:19.937Z,102064.03
2023-05-19T20:59:23.826Z,102061.69
2023-05-19T21:03:27.185Z,102082.91
2023-05-19T21:07:37.505Z,102080.78
2023-05-19T21:11:41.555Z,102075.03
2023-05-19T21:15:45.176Z,102084.09
2023-05-19T21:19:50.598Z,102069.09
2023-05-19T21:23:55.312Z,102080.66
2023-05-19T21:27:59.104Z,102079.69
2023-05-19T21:32:02.211Z,102083.25
2023-05-19T21:36:05.926Z,102083.25
2023-05-19T21:40:12.378Z,102087.91
2023-05-19T21:44:15.147Z,102089.47
2023-05-19T21:48:18.185Z,102091.59
2023-05-19T21:52:21.897Z,102086.44
2023-05-19T21:56:27.778Z,102089.91
2023-05-19T22:00:31.496Z,102093.34
2023-05-19T22:04:43.183Z,102089.44
2023-05-19T22:08:46.008Z,102095.84
2023-05-19T22:12:51.116Z,102093.56
2023-05-19T22:16:54.514Z,102094.38
2023-05-19T22:20:57.864Z,102084.38
2023-05-19T22:25:01.760Z,102082.06
2023-05-19T22:29:06.611Z,102086.72
2023-05-19T22:33:11.975Z,102090.75
2023-05-19T22:37:16.468Z,102088.72
2023-05-19T22:41:19.994Z,102087.72
2023-05-19T22:45:24.371Z,102088.41
2023-05-19T22:49:29.587Z,102080.06
2023-05-19T22:53:33.010Z,102083.50
2023-05-19T22:57:36.718Z,102087.53
2023-05-19T23:01:41.948Z,102084.88
2023-05-19T23:05:46.545Z,102083.81
2023-05-19T23:09:49.702Z,102081.06
2023-05-19T23:13:52.739Z,102077.50
2023-05-19T23:18:01.273Z,102081.91
2023-05-19T23:22:04.652Z,102085.31
2023-05-19T23:26:09.919Z,102087.94
2023-05-19T23:30:13.712Z,102082.31
2023-05-19T23:34:18.749Z,102079.81
2023-05-19T23:38:21.971Z,102072.06
2023-05-19T23:42:25.982Z,102079.66
2023-05-19T23:46:30.052Z,102072.38
2023-05-19T23:50:34.643Z,102080.59
2023-05-19T23:54:38.622Z,102080.59
2023-05-19T23:58:47.638Z,102075.72
